SIRI09 ULLI-UWGG
Flight info
| Callsign | SIRI09 |
|---|---|
| Flight time | N/A |
| Altitude | 29000 |
| Route | SUGI1A SUGIN T873 NIRGI T73 DESUD P164 GAKLU N869 RANTO |
| Aircraft | B738/M-S/LB1 |
Departure
| Time | N/A |
|---|---|
| Airport | Pulkovo Airport (ULLI) |
Arrival
| Time | 2026-05-05 18:58 |
|---|---|
| Airport | Nizhny Novgorod / Strigino International Airport (UWGG) |
| Time | Latitude | Longitude | Altitude | Speed | Heading |
|---|---|---|---|---|---|
| 2026-05-05 17:47 | 59.58921 | 31.47739 | 20989 ft | 424 kts | 104° |
| 2026-05-05 17:47 | 59.58409 | 31.53515 | 21382 ft | 427 kts | 103° |
| 2026-05-05 17:47 | 59.57899 | 31.59301 | 21767 ft | 429 kts | 104° |
| 2026-05-05 17:47 | 59.57377 | 31.65128 | 22157 ft | 433 kts | 104° |
| 2026-05-05 17:48 | 59.56847 | 31.71067 | 22549 ft | 435 kts | 104° |
| 2026-05-05 17:48 | 59.56319 | 31.76918 | 22916 ft | 437 kts | 104° |
| 2026-05-05 17:48 | 59.55780 | 31.82875 | 23306 ft | 440 kts | 104° |
| 2026-05-05 17:48 | 59.55236 | 31.88840 | 23685 ft | 443 kts | 104° |
| 2026-05-05 17:49 | 59.54684 | 31.94891 | 24086 ft | 445 kts | 104° |
| 2026-05-05 17:49 | 59.54122 | 32.00957 | 24472 ft | 447 kts | 104° |
| 2026-05-05 17:49 | 59.53561 | 32.07047 | 24871 ft | 449 kts | 104° |
| 2026-05-05 17:49 | 59.53043 | 32.13163 | 25264 ft | 455 kts | 100° |
| 2026-05-05 17:50 | 59.52250 | 32.19170 | 25707 ft | 450 kts | 120° |
| 2026-05-05 17:50 | 59.50610 | 32.24319 | 26165 ft | 441 kts | 139° |
| 2026-05-05 17:50 | 59.48337 | 32.28175 | 26615 ft | 428 kts | 157° |
| 2026-05-05 17:50 | 59.45658 | 32.30436 | 27069 ft | 413 kts | 174° |
| 2026-05-05 17:51 | 59.42905 | 32.32642 | 27506 ft | 435 kts | 155° |
| 2026-05-05 17:51 | 59.40475 | 32.36380 | 27968 ft | 448 kts | 146° |
| 2026-05-05 17:51 | 59.38170 | 32.40525 | 28383 ft | 453 kts | 144° |
| 2026-05-05 17:51 | 59.35903 | 32.44800 | 28729 ft | 457 kts | 143° |
| 2026-05-05 17:52 | 59.33579 | 32.49250 | 28728 ft | 461 kts | 142° |
| 2026-05-05 17:52 | 59.29044 | 32.57989 | 28733 ft | 457 kts | 142° |
| 2026-05-05 17:53 | 59.24461 | 32.66797 | 28745 ft | 457 kts | 143° |
| 2026-05-05 17:53 | 59.22168 | 32.71175 | 28745 ft | 470 kts | 143° |
| 2026-05-05 17:53 | 59.19801 | 32.75696 | 28745 ft | 486 kts | 143° |
| 2026-05-05 17:54 | 59.14914 | 32.85024 | 28739 ft | 487 kts | 143° |
| 2026-05-05 17:54 | 59.10058 | 32.94244 | 28732 ft | 485 kts | 143° |
| 2026-05-05 17:55 | 59.05217 | 33.03389 | 28733 ft | 485 kts | 143° |
| 2026-05-05 17:55 | 59.00361 | 33.12526 | 28735 ft | 486 kts | 143° |
| 2026-05-05 17:56 | 58.95468 | 33.21693 | 28745 ft | 489 kts | 143° |
| 2026-05-05 17:56 | 58.90560 | 33.30859 | 28738 ft | 488 kts | 143° |
| 2026-05-05 17:57 | 58.85636 | 33.40008 | 28746 ft | 489 kts | 143° |
| 2026-05-05 17:57 | 58.80734 | 33.49085 | 28751 ft | 490 kts | 143° |
| 2026-05-05 17:58 | 58.75779 | 33.58210 | 28745 ft | 491 kts | 143° |
| 2026-05-05 17:58 | 58.70794 | 33.67366 | 28735 ft | 490 kts | 143° |
| 2026-05-05 17:59 | 58.65856 | 33.76389 | 28728 ft | 490 kts | 144° |
| 2026-05-05 17:59 | 58.60933 | 33.85353 | 28732 ft | 489 kts | 143° |
| 2026-05-05 18:00 | 58.56021 | 33.94260 | 28730 ft | 490 kts | 143° |
| 2026-05-05 18:00 | 58.51050 | 34.03235 | 28726 ft | 492 kts | 143° |
| 2026-05-05 18:01 | 58.46029 | 34.12262 | 28736 ft | 491 kts | 143° |
| 2026-05-05 18:01 | 58.41069 | 34.21150 | 28751 ft | 490 kts | 143° |
| 2026-05-05 18:02 | 58.36102 | 34.30014 | 28759 ft | 491 kts | 143° |
| 2026-05-05 18:02 | 58.31100 | 34.38899 | 28758 ft | 492 kts | 143° |
| 2026-05-05 18:03 | 58.26086 | 34.47763 | 28767 ft | 493 kts | 143° |
| 2026-05-05 18:03 | 58.21078 | 34.56591 | 28770 ft | 492 kts | 143° |
| 2026-05-05 18:04 | 58.15895 | 34.64961 | 28771 ft | 490 kts | 146° |
| 2026-05-05 18:04 | 58.10676 | 34.73220 | 28765 ft | 488 kts | 147° |
| 2026-05-05 18:05 | 58.05471 | 34.81431 | 28767 ft | 488 kts | 147° |
| 2026-05-05 18:05 | 58.00326 | 34.89510 | 28772 ft | 489 kts | 147° |
| 2026-05-05 18:06 | 57.95129 | 34.97649 | 28778 ft | 490 kts | 147° |
| 2026-05-05 18:06 | 57.89930 | 35.05756 | 28778 ft | 489 kts | 147° |
| 2026-05-05 18:07 | 57.84652 | 35.13948 | 28788 ft | 490 kts | 147° |
| 2026-05-05 18:07 | 57.79356 | 35.22142 | 28776 ft | 490 kts | 147° |
| 2026-05-05 18:08 | 57.74128 | 35.30202 | 28792 ft | 489 kts | 147° |
| 2026-05-05 18:08 | 57.68867 | 35.38277 | 28783 ft | 489 kts | 147° |
| 2026-05-05 18:09 | 57.63563 | 35.46391 | 28790 ft | 489 kts | 147° |
| 2026-05-05 18:09 | 57.61074 | 35.50767 | 28778 ft | 499 kts | 133° |
| 2026-05-05 18:09 | 57.59238 | 35.56331 | 28805 ft | 510 kts | 117° |
| 2026-05-05 18:10 | 57.56825 | 35.68791 | 28783 ft | 512 kts | 113° |
| 2026-05-05 18:10 | 57.54375 | 35.81231 | 28791 ft | 511 kts | 113° |
| 2026-05-05 18:11 | 57.51910 | 35.93623 | 28793 ft | 512 kts | 113° |
| 2026-05-05 18:11 | 57.49413 | 36.06074 | 28787 ft | 511 kts | 113° |
| 2026-05-05 18:12 | 57.46930 | 36.18465 | 28792 ft | 510 kts | 113° |
| 2026-05-05 18:12 | 57.44436 | 36.30851 | 28796 ft | 510 kts | 113° |
| 2026-05-05 18:13 | 57.41924 | 36.43235 | 28792 ft | 510 kts | 113° |
| 2026-05-05 18:13 | 57.39430 | 36.55469 | 28795 ft | 510 kts | 113° |
| 2026-05-05 18:14 | 57.36904 | 36.67768 | 28789 ft | 512 kts | 113° |
| 2026-05-05 18:14 | 57.34388 | 36.79963 | 28791 ft | 509 kts | 114° |
| 2026-05-05 18:15 | 57.31841 | 36.92231 | 28795 ft | 509 kts | 114° |
| 2026-05-05 18:15 | 57.29299 | 37.04397 | 28800 ft | 510 kts | 113° |
| 2026-05-05 18:16 | 57.26730 | 37.16617 | 28799 ft | 509 kts | 113° |
| 2026-05-05 18:16 | 57.24153 | 37.28806 | 28804 ft | 509 kts | 113° |
| 2026-05-05 18:17 | 57.21570 | 37.40945 | 28809 ft | 509 kts | 113° |
| 2026-05-05 18:17 | 57.18988 | 37.53022 | 28820 ft | 509 kts | 113° |
| 2026-05-05 18:17 | 57.17842 | 37.59199 | 28808 ft | 511 kts | 101° |
| 2026-05-05 18:18 | 57.17572 | 37.65723 | 28841 ft | 511 kts | 86° |
| 2026-05-05 18:18 | 57.18145 | 37.72092 | 28819 ft | 508 kts | 70° |
| 2026-05-05 18:18 | 57.19415 | 37.78114 | 28835 ft | 504 kts | 65° |
| 2026-05-05 18:19 | 57.21942 | 37.90152 | 28819 ft | 505 kts | 66° |
| 2026-05-05 18:19 | 57.24427 | 38.02290 | 28818 ft | 505 kts | 66° |
| 2026-05-05 18:20 | 57.26908 | 38.14480 | 28813 ft | 506 kts | 66° |
| 2026-05-05 18:20 | 57.29380 | 38.26694 | 28820 ft | 507 kts | 66° |
| 2026-05-05 18:21 | 57.31829 | 38.38890 | 28822 ft | 507 kts | 66° |
| 2026-05-05 18:21 | 57.34277 | 38.51117 | 28825 ft | 508 kts | 66° |
| 2026-05-05 18:22 | 57.36721 | 38.63414 | 28830 ft | 507 kts | 66° |
| 2026-05-05 18:22 | 57.39119 | 38.75544 | 28825 ft | 509 kts | 68° |
| 2026-05-05 18:23 | 57.41507 | 38.87697 | 28825 ft | 508 kts | 68° |
| 2026-05-05 18:23 | 57.43892 | 38.99905 | 28823 ft | 508 kts | 68° |
| 2026-05-05 18:24 | 57.46232 | 39.11969 | 28820 ft | 511 kts | 68° |
| 2026-05-05 18:24 | 57.48617 | 39.24335 | 28827 ft | 509 kts | 68° |
| 2026-05-05 18:24 | 57.49491 | 39.30716 | 28829 ft | 512 kts | 83° |
| 2026-05-05 18:25 | 57.49435 | 39.37258 | 28837 ft | 513 kts | 99° |
| 2026-05-05 18:25 | 57.48896 | 39.41521 | 28846 ft | 508 kts | 111° |
| 2026-05-05 18:25 | 57.46958 | 39.49422 | 28847 ft | 505 kts | 119° |
| 2026-05-05 18:26 | 57.43858 | 39.61115 | 28828 ft | 504 kts | 119° |
| 2026-05-05 18:26 | 57.40787 | 39.72774 | 28815 ft | 504 kts | 120° |
| 2026-05-05 18:27 | 57.37710 | 39.84442 | 28816 ft | 505 kts | 120° |
| 2026-05-05 18:27 | 57.34150 | 39.95518 | 28818 ft | 500 kts | 126° |
| 2026-05-05 18:28 | 57.28689 | 40.11743 | 28818 ft | 499 kts | 126° |
| 2026-05-05 18:28 | 57.25008 | 40.22672 | 28819 ft | 499 kts | 126° |
| 2026-05-05 18:29 | 57.21386 | 40.33380 | 28819 ft | 498 kts | 126° |
| 2026-05-05 18:29 | 57.17733 | 40.44133 | 28822 ft | 498 kts | 126° |
| 2026-05-05 18:30 | 57.13968 | 40.54820 | 28825 ft | 494 kts | 131° |
| 2026-05-05 18:30 | 57.11935 | 40.59848 | 28680 ft | 496 kts | 130° |
| 2026-05-05 18:30 | 57.09862 | 40.64961 | 28382 ft | 494 kts | 130° |
| 2026-05-05 18:31 | 57.07826 | 40.69987 | 28036 ft | 490 kts | 131° |
| 2026-05-05 18:31 | 57.05797 | 40.75000 | 27690 ft | 484 kts | 131° |
| 2026-05-05 18:31 | 57.03786 | 40.79950 | 27348 ft | 483 kts | 131° |
| 2026-05-05 18:31 | 57.01788 | 40.84881 | 27007 ft | 479 kts | 131° |
| 2026-05-05 18:32 | 56.99804 | 40.89779 | 26665 ft | 476 kts | 131° |
| 2026-05-05 18:32 | 56.97828 | 40.94624 | 26326 ft | 474 kts | 131° |
| 2026-05-05 18:32 | 56.95858 | 40.99455 | 25986 ft | 472 kts | 131° |
| 2026-05-05 18:32 | 56.93891 | 41.04283 | 25642 ft | 468 kts | 131° |
| 2026-05-05 18:33 | 56.91932 | 41.09047 | 25306 ft | 465 kts | 131° |
| 2026-05-05 18:33 | 56.90001 | 41.13761 | 24969 ft | 464 kts | 131° |
| 2026-05-05 18:33 | 56.88057 | 41.18480 | 24635 ft | 461 kts | 131° |
| 2026-05-05 18:33 | 56.86146 | 41.23122 | 24303 ft | 459 kts | 131° |
| 2026-05-05 18:34 | 56.84208 | 41.27792 | 23975 ft | 457 kts | 131° |
| 2026-05-05 18:34 | 56.82301 | 41.32403 | 23646 ft | 454 kts | 131° |
| 2026-05-05 18:34 | 56.80402 | 41.36989 | 23326 ft | 453 kts | 131° |
| 2026-05-05 18:34 | 56.78520 | 41.41531 | 23011 ft | 450 kts | 131° |
| 2026-05-05 18:35 | 56.76635 | 41.46089 | 22696 ft | 449 kts | 130° |
| 2026-05-05 18:35 | 56.74751 | 41.50631 | 22387 ft | 446 kts | 130° |
| 2026-05-05 18:35 | 56.72894 | 41.55087 | 22105 ft | 445 kts | 130° |
| 2026-05-05 18:35 | 56.71055 | 41.59494 | 21822 ft | 443 kts | 130° |
| 2026-05-05 18:36 | 56.69183 | 41.63970 | 21534 ft | 441 kts | 130° |
| 2026-05-05 18:36 | 56.67335 | 41.68367 | 21243 ft | 438 kts | 131° |
| 2026-05-05 18:36 | 56.65519 | 41.72695 | 20952 ft | 435 kts | 131° |
| 2026-05-05 18:36 | 56.63670 | 41.77097 | 20654 ft | 434 kts | 131° |
| 2026-05-05 18:37 | 56.61838 | 41.81444 | 20364 ft | 432 kts | 131° |
| 2026-05-05 18:37 | 56.60020 | 41.85733 | 20076 ft | 430 kts | 131° |
| 2026-05-05 18:37 | 56.58220 | 41.89975 | 19863 ft | 426 kts | 131° |
| 2026-05-05 18:37 | 56.56390 | 41.94286 | 19852 ft | 425 kts | 131° |
| 2026-05-05 18:38 | 56.54594 | 41.98509 | 19652 ft | 429 kts | 131° |
| 2026-05-05 18:38 | 56.52757 | 42.02818 | 19261 ft | 428 kts | 131° |
| 2026-05-05 18:38 | 56.50948 | 42.07033 | 18850 ft | 422 kts | 131° |
| 2026-05-05 18:38 | 56.49156 | 42.11209 | 18442 ft | 417 kts | 131° |
| 2026-05-05 18:39 | 56.47374 | 42.15357 | 18038 ft | 414 kts | 131° |
| 2026-05-05 18:39 | 56.45589 | 42.19490 | 17640 ft | 414 kts | 131° |
| 2026-05-05 18:39 | 56.43824 | 42.23573 | 17241 ft | 411 kts | 131° |
| 2026-05-05 18:39 | 56.42078 | 42.27611 | 16842 ft | 409 kts | 131° |
| 2026-05-05 18:40 | 56.40322 | 42.31656 | 16445 ft | 407 kts | 131° |
| 2026-05-05 18:40 | 56.38584 | 42.35651 | 16049 ft | 404 kts | 130° |
| 2026-05-05 18:40 | 56.36859 | 42.39604 | 15657 ft | 403 kts | 130° |
| 2026-05-05 18:40 | 56.35144 | 42.43531 | 15246 ft | 395 kts | 131° |
| 2026-05-05 18:41 | 56.33463 | 42.47372 | 14840 ft | 385 kts | 131° |
| 2026-05-05 18:41 | 56.31842 | 42.51099 | 14434 ft | 377 kts | 130° |
| 2026-05-05 18:41 | 56.30237 | 42.54773 | 14025 ft | 370 kts | 130° |
| 2026-05-05 18:41 | 56.28661 | 42.58390 | 13616 ft | 363 kts | 130° |
| 2026-05-05 18:42 | 56.27094 | 42.61982 | 13208 ft | 357 kts | 130° |
| 2026-05-05 18:42 | 56.25585 | 42.65447 | 12804 ft | 352 kts | 131° |
| 2026-05-05 18:42 | 56.24082 | 42.68895 | 12394 ft | 347 kts | 131° |
| 2026-05-05 18:42 | 56.22616 | 42.72271 | 11992 ft | 344 kts | 131° |
| 2026-05-05 18:43 | 56.21139 | 42.75665 | 11589 ft | 342 kts | 131° |
| 2026-05-05 18:43 | 56.19666 | 42.79060 | 11187 ft | 340 kts | 131° |
| 2026-05-05 18:43 | 56.18226 | 42.82378 | 10785 ft | 338 kts | 131° |
| 2026-05-05 18:43 | 56.16790 | 42.85708 | 10379 ft | 335 kts | 131° |
| 2026-05-05 18:44 | 56.15382 | 42.88978 | 9981 ft | 332 kts | 131° |
| 2026-05-05 18:44 | 56.13965 | 42.92287 | 9573 ft | 329 kts | 131° |
| 2026-05-05 18:44 | 56.12590 | 42.95490 | 9171 ft | 325 kts | 131° |
| 2026-05-05 18:44 | 56.11226 | 42.98682 | 8755 ft | 320 kts | 131° |
| 2026-05-05 18:45 | 56.09880 | 43.01836 | 8337 ft | 314 kts | 131° |
| 2026-05-05 18:45 | 56.08577 | 43.04926 | 7893 ft | 303 kts | 131° |
| 2026-05-05 18:45 | 56.07354 | 43.07854 | 7499 ft | 289 kts | 131° |
| 2026-05-05 18:45 | 56.06180 | 43.10685 | 7171 ft | 280 kts | 131° |
| 2026-05-05 18:46 | 56.05024 | 43.13458 | 6797 ft | 272 kts | 131° |
| 2026-05-05 18:46 | 56.03907 | 43.16138 | 6391 ft | 266 kts | 131° |
| 2026-05-05 18:46 | 56.02804 | 43.18766 | 5988 ft | 266 kts | 131° |
| 2026-05-05 18:46 | 56.01698 | 43.21386 | 5612 ft | 265 kts | 131° |
| 2026-05-05 18:47 | 56.00589 | 43.23978 | 5210 ft | 258 kts | 131° |
| 2026-05-05 18:47 | 55.99495 | 43.26526 | 4799 ft | 253 kts | 130° |
| 2026-05-05 18:47 | 55.98453 | 43.28957 | 4400 ft | 249 kts | 131° |
| 2026-05-05 18:47 | 55.97415 | 43.31390 | 3995 ft | 245 kts | 130° |
| 2026-05-05 18:48 | 55.96392 | 43.33763 | 3858 ft | 229 kts | 131° |
| 2026-05-05 18:48 | 55.95474 | 43.35937 | 3837 ft | 213 kts | 126° |
| 2026-05-05 18:48 | 55.94835 | 43.38289 | 3858 ft | 208 kts | 112° |
| 2026-05-05 18:48 | 55.94348 | 43.40771 | 3878 ft | 214 kts | 111° |
| 2026-05-05 18:49 | 55.93861 | 43.43245 | 3866 ft | 214 kts | 111° |
| 2026-05-05 18:49 | 55.93353 | 43.45775 | 3864 ft | 213 kts | 111° |
| 2026-05-05 18:49 | 55.92852 | 43.48235 | 3867 ft | 211 kts | 111° |
| 2026-05-05 18:49 | 55.92346 | 43.50705 | 3871 ft | 212 kts | 110° |
| 2026-05-05 18:50 | 55.92033 | 43.53297 | 3873 ft | 213 kts | 94° |
| 2026-05-05 18:50 | 55.92074 | 43.55955 | 3870 ft | 213 kts | 79° |
| 2026-05-05 18:50 | 55.92441 | 43.58389 | 3861 ft | 200 kts | 64° |
| 2026-05-05 18:50 | 55.93075 | 43.60579 | 3877 ft | 199 kts | 58° |
| 2026-05-05 18:51 | 55.93754 | 43.62754 | 3870 ft | 199 kts | 51° |
| 2026-05-05 18:51 | 55.94648 | 43.64584 | 3874 ft | 194 kts | 35° |
| 2026-05-05 18:51 | 55.95759 | 43.65929 | 3866 ft | 190 kts | 20° |
| 2026-05-05 18:51 | 55.96930 | 43.67018 | 3866 ft | 193 kts | 30° |
| 2026-05-05 18:52 | 55.97932 | 43.68622 | 3865 ft | 198 kts | 46° |
| 2026-05-05 18:52 | 55.98810 | 43.70547 | 3875 ft | 198 kts | 47° |
| 2026-05-05 18:52 | 55.99671 | 43.72455 | 3875 ft | 197 kts | 47° |
| 2026-05-05 18:52 | 56.00544 | 43.74400 | 3870 ft | 197 kts | 46° |
| 2026-05-05 18:53 | 56.01504 | 43.76020 | 3866 ft | 182 kts | 28° |
| 2026-05-05 18:53 | 56.02653 | 43.76696 | 3886 ft | 168 kts | 352° |
| 2026-05-05 18:53 | 56.03766 | 43.76281 | 3893 ft | 165 kts | 338° |
| 2026-05-05 18:53 | 56.04891 | 43.75672 | 3820 ft | 166 kts | 338° |
| 2026-05-05 18:54 | 56.05987 | 43.75072 | 3740 ft | 165 kts | 338° |
| 2026-05-05 18:54 | 56.07088 | 43.74469 | 3651 ft | 165 kts | 338° |
| 2026-05-05 18:54 | 56.08245 | 43.74171 | 3571 ft | 170 kts | 356° |
| 2026-05-05 18:54 | 56.09431 | 43.74427 | 3500 ft | 173 kts | 1° |
| 2026-05-05 18:55 | 56.10561 | 43.74733 | 3299 ft | 175 kts | 3° |
| 2026-05-05 18:55 | 56.11793 | 43.75075 | 3048 ft | 169 kts | 3° |
| 2026-05-05 18:55 | 56.12928 | 43.75394 | 2800 ft | 163 kts | 3° |
| 2026-05-05 18:55 | 56.14040 | 43.75708 | 2500 ft | 159 kts | 2° |
| 2026-05-05 18:56 | 56.15127 | 43.76015 | 2176 ft | 158 kts | 2° |
| 2026-05-05 18:56 | 56.16216 | 43.76313 | 1744 ft | 164 kts | 3° |
| 2026-05-05 18:56 | 56.17356 | 43.76640 | 1342 ft | 166 kts | 4° |
| 2026-05-05 18:56 | 56.18474 | 43.76983 | 1033 ft | 158 kts | 10° |
| 2026-05-05 18:57 | 56.19524 | 43.77377 | 664 ft | 146 kts | 5° |
| 2026-05-05 18:57 | 56.20558 | 43.77678 | 442 ft | 158 kts | 10° |
| 2026-05-05 18:57 | 56.21641 | 43.78084 | 269 ft | 156 kts | 11° |
| 2026-05-05 18:57 | 56.22450 | 43.78378 | 249 ft | 66 kts | 12° |
| 2026-05-05 18:58 | 56.22578 | 43.78428 | 250 ft | 0 kts | 12° |